Time;durP1;ratioP1;P1;durP2;ratioP2;P2;SDS_P1;SDS_P2;PMS_P1;PMS_P2;Temp;Humidity;BMP_temperature;BMP_pressure;BME280_temperature;BME280_humidity;BME280_pressure;Samples;Min_cycle;Max_cycle;Signal;HPM_P1;HPM_P2
2024/01/05 21:08:03;;;;;;;43.40;24.70;;;;;;;-0.86;100.00;100860.73;103925;1285;601729;-79
2024/01/05 21:10:33;;;;;;;42.50;25.60;;;;;;;-0.85;100.00;100867.39;106105;1260;60882;-78
2024/01/05 21:13:02;;;;;;;39.20;24.00;;;;;;;-0.88;100.00;100865.23;106860;1254;59434;-80
2024/01/05 21:15:31;;;;;;;38.70;23.10;;;;;;;-0.88;100.00;100869.32;106807;1253;69832;-81
2024/01/05 21:18:00;;;;;;;35.60;21.00;;;;;;;-0.87;100.00;100864.70;106819;1254;69526;-79
2024/01/05 21:20:29;;;;;;;34.30;20.40;;;;;;;-0.88;100.00;100865.90;106631;1254;228063;-79
2024/01/05 21:22:59;;;;;;;33.70;20.30;;;;;;;-0.86;100.00;100856.63;106743;1255;72197;-81
2024/01/05 21:25:31;;;;;;;35.20;19.90;;;;;;;-0.85;100.00;100857.64;106999;1248;59707;-80
2024/01/05 21:28:00;;;;;;;34.30;21.70;;;;;;;-0.81;100.00;100858.75;106891;1248;58671;-79
2024/01/05 21:30:29;;;;;;;42.10;23.50;;;;;;;-0.75;100.00;100851.77;106912;1251;70974;-77
2024/01/05 21:32:58;;;;;;;37.50;21.60;;;;;;;-0.66;100.00;100845.56;106900;1250;72572;-79
2024/01/05 21:35:30;;;;;;;37.60;22.00;;;;;;;-0.57;100.00;100842.44;107027;1250;70813;-80
2024/01/05 21:38:00;;;;;;;34.70;19.40;;;;;;;-0.50;100.00;100833.55;106902;1249;75064;-78
2024/01/05 21:40:30;;;;;;;29.80;19.50;;;;;;;-0.46;100.00;100832.41;106999;1251;61488;-76
2024/01/05 21:43:05;;;;;;;29.50;17.80;;;;;;;-0.44;100.00;100831.34;106830;1250;61689;-81
2024/01/05 21:45:36;;;;;;;31.10;18.00;;;;;;;-0.45;100.00;100827.79;106754;1258;72817;-78
2024/01/05 21:48:09;;;;;;;28.20;17.40;;;;;;;-0.47;100.00;100816.88;107278;1254;70704;-81
2024/01/05 21:50:41;;;;;;;28.50;17.20;;;;;;;-0.45;100.00;100815.97;107067;1250;69533;-86
2024/01/05 21:53:16;;;;;;;27.70;16.50;;;;;;;-0.45;100.00;100812.55;106985;1256;75332;-85
2024/01/05 21:55:56;;;;;;;29.30;18.10;;;;;;;-0.45;100.00;100814.23;107338;1252;62543;-81
2024/01/05 21:58:26;;;;;;;27.60;18.10;;;;;;;-0.55;100.00;100787.30;107626;1251;60196;-80
2024/01/05 22:00:56;;;;;;;24.80;17.30;;;;;;;-0.36;100.00;100811.27;107345;1253;71773;-83
2024/01/05 22:03:36;;;;;;;24.70;15.60;;;;;;;-0.36;100.00;100802.38;107361;1252;69557;-83
2024/01/05 22:06:09;;;;;;;23.60;14.80;;;;;;;-0.36;100.00;100806.15;107431;1251;69321;-86
2024/01/05 22:08:39;;;;;;;27.40;16.70;;;;;;;-0.35;100.00;100804.77;107261;1250;74245;-84
2024/01/05 22:11:09;;;;;;;22.90;14.80;;;;;;;-0.42;100.00;100782.19;107150;1254;63512;-83
2024/01/05 22:13:39;;;;;;;24.40;15.00;;;;;;;-0.31;100.00;100796.44;106915;1253;60237;-82
2024/01/05 22:16:24;;;;;;;26.30;15.80;;;;;;;-0.33;100.00;100795.98;107062;1251;62634;-83
2024/01/05 22:18:53;;;;;;;28.50;16.20;;;;;;;-0.26;100.00;100797.52;107085;1246;70345;-84
2024/01/05 22:21:22;;;;;;;26.80;15.00;;;;;;;-0.20;100.00;100805.41;107205;1250;67976;-82
2024/01/05 22:23:51;;;;;;;25.50;14.40;;;;;;;-0.23;100.00;100803.91;107123;1248;73183;-83
2024/01/05 22:26:22;;;;;;;23.20;14.00;;;;;;;-0.27;100.00;100801.30;107320;1249;62458;-82
2024/01/05 22:28:52;;;;;;;23.60;14.00;;;;;;;-0.24;100.00;100796.09;107619;1249;59817;-82
2024/01/05 22:31:21;;;;;;;24.70;15.10;;;;;;;-0.20;100.00;100795.29;107069;1251;71925;-81
2024/01/05 22:33:52;;;;;;;22.40;13.70;;;;;;;-0.17;100.00;100793.17;106942;1255;71006;-83
2024/01/05 22:36:23;;;;;;;30.10;17.40;;;;;;;-0.18;100.00;100797.11;107111;1248;70175;-82
2024/01/05 22:38:52;;;;;;;30.00;19.50;;;;;;;-0.17;100.00;100793.84;107289;1251;71635;-82
2024/01/05 22:41:22;;;;;;;27.70;17.30;;;;;;;-0.14;100.00;100797.52;107404;1246;60631;-80
2024/01/05 22:43:53;;;;;;;28.40;18.30;;;;;;;-0.14;100.00;100797.70;107175;1247;60335;-82
2024/01/05 22:46:22;;;;;;;32.10;18.80;;;;;;;-0.16;100.00;100800.68;106977;1258;70560;-80
2024/01/05 22:48:51;;;;;;;28.50;17.10;;;;;;;-0.15;100.00;100797.58;107076;1258;72223;-83
2024/01/05 22:51:27;;;;;;;27.30;16.00;;;;;;;-0.16;100.00;100787.66;107051;1247;69895;-79
2024/01/05 22:53:57;;;;;;;27.10;16.50;;;;;;;-0.17;100.00;100788.38;107081;1247;75302;-79
2024/01/05 22:56:25;;;;;;;25.60;15.90;;;;;;;-0.18;100.00;100783.77;106966;1246;61054;-80
2024/01/05 22:58:54;;;;;;;25.90;15.60;;;;;;;-0.15;100.00;100785.55;107011;1258;61159;-81
2024/01/05 23:01:23;;;;;;;28.80;16.60;;;;;;;-0.06;100.00;100785.00;107018;1248;70811;-80
2024/01/05 23:03:52;;;;;;;26.10;14.70;;;;;;;0.01;100.00;100777.11;107043;1249;71066;-80
2024/01/05 23:06:24;;;;;;;25.20;14.30;;;;;;;0.10;100.00;100777.02;107038;1257;69113;-82
2024/01/05 23:08:53;;;;;;;25.90;15.80;;;;;;;0.18;100.00;100776.42;106970;1251;73864;-80
2024/01/05 23:11:22;;;;;;;37.30;22.30;;;;;;;0.25;100.00;100782.91;106971;1249;60222;-80
2024/01/05 23:13:51;;;;;;;22.90;13.90;;;;;;;0.34;100.00;100782.85;107061;1248;59610;-81
2024/01/05 23:16:20;;;;;;;24.80;14.10;;;;;;;0.41;100.00;100781.45;107082;1248;70927;-80
2024/01/05 23:19:06;;;;;;;21.80;13.70;;;;;;;0.50;100.00;100785.26;104817;1280;600724;-81
2024/01/05 23:21:35;;;;;;;25.00;13.70;;;;;;;0.52;100.00;100781.29;106135;1268;62214;-81
2024/01/05 23:24:06;;;;;;;22.10;13.80;;;;;;;0.53;100.00;100777.83;106188;1261;62787;-83
2024/01/05 23:26:34;;;;;;;22.70;13.80;;;;;;;0.54;100.00;100775.73;106849;1251;73508;-81
2024/01/05 23:29:03;;;;;;;20.90;12.80;;;;;;;0.63;100.00;100768.09;106995;1252;70819;-80
2024/01/05 23:31:38;;;;;;;19.80;12.80;;;;;;;0.74;100.00;100768.96;107022;1248;66640;-80
2024/01/05 23:34:08;;;;;;;19.60;12.90;;;;;;;0.73;100.00;100763.85;107121;1251;73253;-80
2024/01/05 23:36:45;;;;;;;19.50;12.60;;;;;;;0.81;100.00;100778.17;107194;1251;61644;-81
2024/01/05 23:39:13;;;;;;;23.30;12.50;;;;;;;0.93;100.00;100771.46;106979;1247;61970;-82
2024/01/05 23:41:44;;;;;;;18.80;12.80;;;;;;;0.99;100.00;100767.82;106911;1254;71644;-81
2024/01/05 23:44:13;;;;;;;18.80;12.10;;;;;;;1.04;100.00;100765.80;106999;1248;72569;-80
2024/01/05 23:46:41;;;;;;;20.00;12.00;;;;;;;1.02;100.00;100757.61;106949;1254;72235;-79
2024/01/05 23:49:10;;;;;;;16.80;11.50;;;;;;;1.04;100.00;100757.21;107114;1248;72240;-81
2024/01/05 23:51:39;;;;;;;19.00;11.60;;;;;;;1.00;100.00;100759.40;106999;1251;60454;-80
2024/01/05 23:54:08;;;;;;;18.60;12.20;;;;;;;1.00;100.00;100759.57;106914;1247;59433;-79
2024/01/05 23:56:37;;;;;;;16.70;11.30;;;;;;;1.06;100.00;100755.08;107192;1248;70759;-84
2024/01/05 23:59:06;;;;;;;17.70;11.50;;;;;;;1.14;100.00;100750.20;106975;1259;70638;-81
